sensor_id;sensor_type;location;lat;lon;timestamp;temperature;humidity
12769;DHT22;6448;48.916;8.990;2022-07-06T00:00:27;26.60;36.00
12769;DHT22;6448;48.916;8.990;2022-07-06T00:01:29;26.60;36.00
12769;DHT22;6448;48.916;8.990;2022-07-06T00:02:31;26.60;36.10
12769;DHT22;6448;48.916;8.990;2022-07-06T00:03:33;26.60;36.10
12769;DHT22;6448;48.916;8.990;2022-07-06T00:04:34;26.60;36.20
12769;DHT22;6448;48.916;8.990;2022-07-06T00:05:36;26.50;36.20
12769;DHT22;6448;48.916;8.990;2022-07-06T00:06:37;26.60;36.30
12769;DHT22;6448;48.916;8.990;2022-07-06T00:07:39;26.50;36.30
12769;DHT22;6448;48.916;8.990;2022-07-06T00:08:41;26.40;36.20
12769;DHT22;6448;48.916;8.990;2022-07-06T00:09:43;26.50;36.30
12769;DHT22;6448;48.916;8.990;2022-07-06T00:10:44;26.40;36.30
12769;DHT22;6448;48.916;8.990;2022-07-06T00:11:46;26.40;36.40
12769;DHT22;6448;48.916;8.990;2022-07-06T00:12:46;26.50;36.50
12769;DHT22;6448;48.916;8.990;2022-07-06T00:13:48;26.50;36.50
12769;DHT22;6448;48.916;8.990;2022-07-06T00:14:49;26.40;36.40
12769;DHT22;6448;48.916;8.990;2022-07-06T00:15:51;26.40;36.40
12769;DHT22;6448;48.916;8.990;2022-07-06T00:16:52;26.50;36.60
12769;DHT22;6448;48.916;8.990;2022-07-06T00:17:55;26.40;36.50
12769;DHT22;6448;48.916;8.990;2022-07-06T00:18:56;26.30;36.60
12769;DHT22;6448;48.916;8.990;2022-07-06T00:19:57;26.50;36.70
12769;DHT22;6448;48.916;8.990;2022-07-06T00:20:58;26.40;36.60
12769;DHT22;6448;48.916;8.990;2022-07-06T00:22:00;26.40;36.60
12769;DHT22;6448;48.916;8.990;2022-07-06T00:23:01;26.30;36.60
12769;DHT22;6448;48.916;8.990;2022-07-06T00:24:03;26.40;36.70
12769;DHT22;6448;48.916;8.990;2022-07-06T00:25:05;26.30;36.70
12769;DHT22;6448;48.916;8.990;2022-07-06T00:26:07;26.30;36.70
12769;DHT22;6448;48.916;8.990;2022-07-06T00:27:08;26.30;36.70
12769;DHT22;6448;48.916;8.990;2022-07-06T00:28:10;26.30;36.70
12769;DHT22;6448;48.916;8.990;2022-07-06T00:29:11;26.20;36.70
12769;DHT22;6448;48.916;8.990;2022-07-06T00:30:14;26.20;36.70
12769;DHT22;6448;48.916;8.990;2022-07-06T00:31:15;26.20;36.70
12769;DHT22;6448;48.916;8.990;2022-07-06T00:32:17;26.10;36.70
12769;DHT22;6448;48.916;8.990;2022-07-06T00:33:20;26.00;36.70
12769;DHT22;6448;48.916;8.990;2022-07-06T00:34:22;26.20;36.80
12769;DHT22;6448;48.916;8.990;2022-07-06T00:35:22;26.00;36.70
12769;DHT22;6448;48.916;8.990;2022-07-06T00:36:24;26.10;36.80
12769;DHT22;6448;48.916;8.990;2022-07-06T00:37:25;26.10;36.90
12769;DHT22;6448;48.916;8.990;2022-07-06T00:38:27;26.20;37.00
12769;DHT22;6448;48.916;8.990;2022-07-06T00:39:28;26.00;36.80
12769;DHT22;6448;48.916;8.990;2022-07-06T00:40:30;26.10;36.90
12769;DHT22;6448;48.916;8.990;2022-07-06T00:41:31;26.10;36.90
12769;DHT22;6448;48.916;8.990;2022-07-06T00:42:39;26.00;36.90
12769;DHT22;6448;48.916;8.990;2022-07-06T00:43:47;26.00;37.00
12769;DHT22;6448;48.916;8.990;2022-07-06T00:44:49;26.00;37.00
12769;DHT22;6448;48.916;8.990;2022-07-06T00:45:51;26.00;37.00
12769;DHT22;6448;48.916;8.990;2022-07-06T00:46:52;25.90;36.90
12769;DHT22;6448;48.916;8.990;2022-07-06T00:47:54;26.00;37.00
12769;DHT22;6448;48.916;8.990;2022-07-06T00:48:56;25.90;37.00
12769;DHT22;6448;48.916;8.990;2022-07-06T00:49:58;26.00;37.00
12769;DHT22;6448;48.916;8.990;2022-07-06T00:51:16;25.90;37.00
12769;DHT22;6448;48.916;8.990;2022-07-06T00:52:18;25.80;36.80
12769;DHT22;6448;48.916;8.990;2022-07-06T00:53:19;25.70;36.80
12769;DHT22;6448;48.916;8.990;2022-07-06T00:54:21;26.00;37.10
12769;DHT22;6448;48.916;8.990;2022-07-06T00:55:23;25.80;37.00
12769;DHT22;6448;48.916;8.990;2022-07-06T00:56:26;25.80;37.10
12769;DHT22;6448;48.916;8.990;2022-07-06T00:57:29;25.80;37.10
12769;DHT22;6448;48.916;8.990;2022-07-06T00:58:31;25.70;37.00
12769;DHT22;6448;48.916;8.990;2022-07-06T00:59:32;25.40;36.90
12769;DHT22;6448;48.916;8.990;2022-07-06T01:00:35;25.70;37.10
12769;DHT22;6448;48.916;8.990;2022-07-06T01:01:36;25.70;37.10
12769;DHT22;6448;48.916;8.990;2022-07-06T01:02:37;25.70;37.00
12769;DHT22;6448;48.916;8.990;2022-07-06T01:03:38;25.70;37.10
12769;DHT22;6448;48.916;8.990;2022-07-06T01:04:42;25.80;37.10
12769;DHT22;6448;48.916;8.990;2022-07-06T01:05:43;25.60;36.90
12769;DHT22;6448;48.916;8.990;2022-07-06T01:06:46;25.60;36.90
12769;DHT22;6448;48.916;8.990;2022-07-06T01:07:49;25.60;36.90
12769;DHT22;6448;48.916;8.990;2022-07-06T01:08:51;25.60;37.10
12769;DHT22;6448;48.916;8.990;2022-07-06T01:09:52;25.60;37.00
12769;DHT22;6448;48.916;8.990;2022-07-06T01:10:53;25.60;37.00
12769;DHT22;6448;48.916;8.990;2022-07-06T01:11:54;25.50;36.90
12769;DHT22;6448;48.916;8.990;2022-07-06T01:12:57;25.50;36.80
12769;DHT22;6448;48.916;8.990;2022-07-06T01:14:00;25.50;36.90
12769;DHT22;6448;48.916;8.990;2022-07-06T01:15:02;25.50;36.80
12769;DHT22;6448;48.916;8.990;2022-07-06T01:16:04;25.50;36.90
12769;DHT22;6448;48.916;8.990;2022-07-06T01:17:07;25.50;36.90
12769;DHT22;6448;48.916;8.990;2022-07-06T01:18:09;25.50;37.00
12769;DHT22;6448;48.916;8.990;2022-07-06T01:19:12;25.50;37.00
12769;DHT22;6448;48.916;8.990;2022-07-06T01:20:14;25.40;36.90
12769;DHT22;6448;48.916;8.990;2022-07-06T01:21:16;25.50;37.10
12769;DHT22;6448;48.916;8.990;2022-07-06T01:22:18;25.40;37.00
12769;DHT22;6448;48.916;8.990;2022-07-06T01:23:19;25.60;37.20
12769;DHT22;6448;48.916;8.990;2022-07-06T01:24:20;25.30;36.90
12769;DHT22;6448;48.916;8.990;2022-07-06T01:25:22;25.30;36.90
12769;DHT22;6448;48.916;8.990;2022-07-06T01:26:23;25.40;37.10
12769;DHT22;6448;48.916;8.990;2022-07-06T01:27:25;25.40;37.20
12769;DHT22;6448;48.916;8.990;2022-07-06T01:28:26;25.30;37.10
12769;DHT22;6448;48.916;8.990;2022-07-06T01:29:27;25.30;37.10
12769;DHT22;6448;48.916;8.990;2022-07-06T01:30:28;25.30;37.10
12769;DHT22;6448;48.916;8.990;2022-07-06T01:31:30;25.30;37.00
12769;DHT22;6448;48.916;8.990;2022-07-06T01:32:33;25.20;36.90
12769;DHT22;6448;48.916;8.990;2022-07-06T01:33:35;25.20;37.00
12769;DHT22;6448;48.916;8.990;2022-07-06T01:34:36;25.20;36.90
12769;DHT22;6448;48.916;8.990;2022-07-06T01:35:39;25.20;36.90
12769;DHT22;6448;48.916;8.990;2022-07-06T01:36:40;25.20;36.90
12769;DHT22;6448;48.916;8.990;2022-07-06T01:37:43;25.10;36.90
12769;DHT22;6448;48.916;8.990;2022-07-06T01:38:45;25.10;37.00
12769;DHT22;6448;48.916;8.990;2022-07-06T01:39:47;25.10;37.10
12769;DHT22;6448;48.916;8.990;2022-07-06T01:40:48;25.10;37.10
12769;DHT22;6448;48.916;8.990;2022-07-06T01:41:50;25.00;37.10
12769;DHT22;6448;48.916;8.990;2022-07-06T01:42:50;25.10;37.10
12769;DHT22;6448;48.916;8.990;2022-07-06T01:43:53;25.00;37.10
12769;DHT22;6448;48.916;8.990;2022-07-06T01:44:54;25.00;37.20
12769;DHT22;6448;48.916;8.990;2022-07-06T01:45:56;25.00;37.20
12769;DHT22;6448;48.916;8.990;2022-07-06T01:46:57;25.00;37.30
12769;DHT22;6448;48.916;8.990;2022-07-06T01:47:59;25.00;37.30
12769;DHT22;6448;48.916;8.990;2022-07-06T01:49:00;25.00;37.40
12769;DHT22;6448;48.916;8.990;2022-07-06T01:50:05;25.00;37.40
12769;DHT22;6448;48.916;8.990;2022-07-06T01:51:10;25.00;37.50
12769;DHT22;6448;48.916;8.990;2022-07-06T01:52:13;25.00;37.50
12769;DHT22;6448;48.916;8.990;2022-07-06T01:53:15;25.00;37.60
12769;DHT22;6448;48.916;8.990;2022-07-06T01:54:17;24.90;37.50
12769;DHT22;6448;48.916;8.990;2022-07-06T01:55:17;24.90;37.50
12769;DHT22;6448;48.916;8.990;2022-07-06T01:56:19;25.10;37.60
12769;DHT22;6448;48.916;8.990;2022-07-06T01:57:22;24.90;37.50
12769;DHT22;6448;48.916;8.990;2022-07-06T01:58:24;24.90;37.50
12769;DHT22;6448;48.916;8.990;2022-07-06T01:59:25;25.00;37.50
12769;DHT22;6448;48.916;8.990;2022-07-06T02:00:27;24.90;37.50
12769;DHT22;6448;48.916;8.990;2022-07-06T02:01:27;24.90;38.10
12769;DHT22;6448;48.916;8.990;2022-07-06T02:02:29;24.90;37.50
12769;DHT22;6448;48.916;8.990;2022-07-06T02:03:30;24.80;37.40
12769;DHT22;6448;48.916;8.990;2022-07-06T02:04:34;24.90;37.50
12769;DHT22;6448;48.916;8.990;2022-07-06T02:05:35;24.80;37.40
12769;DHT22;6448;48.916;8.990;2022-07-06T02:06:38;24.80;37.50
12769;DHT22;6448;48.916;8.990;2022-07-06T02:07:39;25.00;37.60
12769;DHT22;6448;48.916;8.990;2022-07-06T02:08:43;24.80;37.60
12769;DHT22;6448;48.916;8.990;2022-07-06T02:09:44;24.80;37.60
12769;DHT22;6448;48.916;8.990;2022-07-06T02:10:45;24.70;37.60
12769;DHT22;6448;48.916;8.990;2022-07-06T02:11:47;24.80;37.70
12769;DHT22;6448;48.916;8.990;2022-07-06T02:12:50;24.80;37.70
12769;DHT22;6448;48.916;8.990;2022-07-06T02:13:51;24.70;37.70
12769;DHT22;6448;48.916;8.990;2022-07-06T02:14:52;24.70;37.80
12769;DHT22;6448;48.916;8.990;2022-07-06T02:15:53;24.70;37.80
12769;DHT22;6448;48.916;8.990;2022-07-06T02:16:55;24.80;37.90
12769;DHT22;6448;48.916;8.990;2022-07-06T02:17:56;24.70;37.80
12769;DHT22;6448;48.916;8.990;2022-07-06T02:18:58;24.70;37.90
12769;DHT22;6448;48.916;8.990;2022-07-06T02:20:03;24.70;38.00
12769;DHT22;6448;48.916;8.990;2022-07-06T02:21:05;24.70;37.90
12769;DHT22;6448;48.916;8.990;2022-07-06T02:22:07;24.80;37.90
12769;DHT22;6448;48.916;8.990;2022-07-06T02:23:09;24.70;37.90
12769;DHT22;6448;48.916;8.990;2022-07-06T02:24:10;24.60;37.80
12769;DHT22;6448;48.916;8.990;2022-07-06T02:25:12;24.70;37.90
12769;DHT22;6448;48.916;8.990;2022-07-06T02:26:14;24.60;37.90
12769;DHT22;6448;48.916;8.990;2022-07-06T02:27:17;24.60;38.00
12769;DHT22;6448;48.916;8.990;2022-07-06T02:28:18;24.70;38.00
12769;DHT22;6448;48.916;8.990;2022-07-06T02:29:21;24.60;38.00
12769;DHT22;6448;48.916;8.990;2022-07-06T02:30:22;24.60;38.10
12769;DHT22;6448;48.916;8.990;2022-07-06T02:31:24;24.60;38.10
12769;DHT22;6448;48.916;8.990;2022-07-06T02:32:25;24.70;38.20
12769;DHT22;6448;48.916;8.990;2022-07-06T02:33:27;24.60;38.10
12769;DHT22;6448;48.916;8.990;2022-07-06T02:34:28;24.70;38.10
12769;DHT22;6448;48.916;8.990;2022-07-06T02:35:30;24.80;38.20
12769;DHT22;6448;48.916;8.990;2022-07-06T02:36:31;24.60;38.10
12769;DHT22;6448;48.916;8.990;2022-07-06T02:37:35;24.60;38.10
12769;DHT22;6448;48.916;8.990;2022-07-06T02:38:36;24.60;38.10
12769;DHT22;6448;48.916;8.990;2022-07-06T02:39:38;24.80;38.20
12769;DHT22;6448;48.916;8.990;2022-07-06T02:40:39;24.60;38.20
12769;DHT22;6448;48.916;8.990;2022-07-06T02:41:41;24.60;38.30
12769;DHT22;6448;48.916;8.990;2022-07-06T02:42:42;24.60;38.30
12769;DHT22;6448;48.916;8.990;2022-07-06T02:43:44;24.60;38.40
12769;DHT22;6448;48.916;8.990;2022-07-06T02:44:45;24.50;38.30
12769;DHT22;6448;48.916;8.990;2022-07-06T02:45:47;24.50;38.30
12769;DHT22;6448;48.916;8.990;2022-07-06T02:46:48;24.60;38.40
12769;DHT22;6448;48.916;8.990;2022-07-06T02:47:50;24.50;38.40
12769;DHT22;6448;48.916;8.990;2022-07-06T02:48:51;24.50;38.40
12769;DHT22;6448;48.916;8.990;2022-07-06T02:49:53;24.50;38.50
12769;DHT22;6448;48.916;8.990;2022-07-06T02:50:55;24.50;38.60
12769;DHT22;6448;48.916;8.990;2022-07-06T02:51:59;24.50;38.60
12769;DHT22;6448;48.916;8.990;2022-07-06T02:53:01;24.40;38.60
12769;DHT22;6448;48.916;8.990;2022-07-06T02:54:04;24.50;38.70
12769;DHT22;6448;48.916;8.990;2022-07-06T02:55:06;24.40;38.70
12769;DHT22;6448;48.916;8.990;2022-07-06T02:56:08;24.40;38.80
12769;DHT22;6448;48.916;8.990;2022-07-06T02:57:10;24.30;38.80
12769;DHT22;6448;48.916;8.990;2022-07-06T02:58:12;24.30;38.90
12769;DHT22;6448;48.916;8.990;2022-07-06T02:59:13;24.30;39.00
12769;DHT22;6448;48.916;8.990;2022-07-06T03:00:16;24.30;39.10
12769;DHT22;6448;48.916;8.990;2022-07-06T03:01:17;24.30;39.20
12769;DHT22;6448;48.916;8.990;2022-07-06T03:02:19;24.30;39.30
12769;DHT22;6448;48.916;8.990;2022-07-06T03:03:21;24.20;39.30
12769;DHT22;6448;48.916;8.990;2022-07-06T03:04:23;24.20;39.30
12769;DHT22;6448;48.916;8.990;2022-07-06T03:05:24;24.20;39.40
12769;DHT22;6448;48.916;8.990;2022-07-06T03:06:26;24.20;39.40
12769;DHT22;6448;48.916;8.990;2022-07-06T03:07:27;24.20;39.50
12769;DHT22;6448;48.916;8.990;2022-07-06T03:08:31;24.20;39.50
12769;DHT22;6448;48.916;8.990;2022-07-06T03:09:32;24.20;39.50
12769;DHT22;6448;48.916;8.990;2022-07-06T03:10:34;24.20;39.60
12769;DHT22;6448;48.916;8.990;2022-07-06T03:11:34;24.20;39.60
12769;DHT22;6448;48.916;8.990;2022-07-06T03:12:38;24.10;39.70
12769;DHT22;6448;48.916;8.990;2022-07-06T03:13:38;24.10;39.70
12769;DHT22;6448;48.916;8.990;2022-07-06T03:14:40;24.10;39.70
12769;DHT22;6448;48.916;8.990;2022-07-06T03:15:41;24.30;39.80
12769;DHT22;6448;48.916;8.990;2022-07-06T03:16:44;24.10;39.80
12769;DHT22;6448;48.916;8.990;2022-07-06T03:17:45;24.10;39.80
12769;DHT22;6448;48.916;8.990;2022-07-06T03:18:47;24.10;39.90
12769;DHT22;6448;48.916;8.990;2022-07-06T03:19:48;24.10;39.90
12769;DHT22;6448;48.916;8.990;2022-07-06T03:20:51;24.10;39.90
12769;DHT22;6448;48.916;8.990;2022-07-06T03:21:52;24.10;39.90
12769;DHT22;6448;48.916;8.990;2022-07-06T03:22:54;24.10;40.00
12769;DHT22;6448;48.916;8.990;2022-07-06T03:23:57;24.10;40.00
12769;DHT22;6448;48.916;8.990;2022-07-06T03:24:59;23.90;40.00
12769;DHT22;6448;48.916;8.990;2022-07-06T03:26:00;24.10;40.10
12769;DHT22;6448;48.916;8.990;2022-07-06T03:27:03;24.20;40.20
12769;DHT22;6448;48.916;8.990;2022-07-06T03:28:05;24.10;40.20
12769;DHT22;6448;48.916;8.990;2022-07-06T03:29:06;24.10;40.20
12769;DHT22;6448;48.916;8.990;2022-07-06T03:30:08;24.10;40.20
12769;DHT22;6448;48.916;8.990;2022-07-06T03:31:10;24.00;40.20
12769;DHT22;6448;48.916;8.990;2022-07-06T03:32:11;24.00;40.20
12769;DHT22;6448;48.916;8.990;2022-07-06T03:33:14;24.00;40.20
12769;DHT22;6448;48.916;8.990;2022-07-06T03:34:14;24.00;40.30
12769;DHT22;6448;48.916;8.990;2022-07-06T03:35:17;24.00;40.30
12769;DHT22;6448;48.916;8.990;2022-07-06T03:36:19;24.00;40.30
12769;DHT22;6448;48.916;8.990;2022-07-06T03:37:21;24.00;40.40
12769;DHT22;6448;48.916;8.990;2022-07-06T03:38:22;24.10;40.50
12769;DHT22;6448;48.916;8.990;2022-07-06T03:39:26;24.10;40.50
12769;DHT22;6448;48.916;8.990;2022-07-06T03:40:28;23.90;40.40
12769;DHT22;6448;48.916;8.990;2022-07-06T03:41:30;23.90;40.50
12769;DHT22;6448;48.916;8.990;2022-07-06T03:42:32;23.90;40.60
12769;DHT22;6448;48.916;8.990;2022-07-06T03:43:33;23.90;40.60
12769;DHT22;6448;48.916;8.990;2022-07-06T03:44:35;23.90;40.70
12769;DHT22;6448;48.916;8.990;2022-07-06T03:45:37;23.90;40.70
12769;DHT22;6448;48.916;8.990;2022-07-06T03:46:40;23.80;40.70
12769;DHT22;6448;48.916;8.990;2022-07-06T03:47:41;23.90;40.80
12769;DHT22;6448;48.916;8.990;2022-07-06T03:48:44;23.80;40.90
12769;DHT22;6448;48.916;8.990;2022-07-06T03:49:47;23.80;41.00
12769;DHT22;6448;48.916;8.990;2022-07-06T03:50:49;23.80;40.90
12769;DHT22;6448;48.916;8.990;2022-07-06T03:51:49;23.80;41.00
12769;DHT22;6448;48.916;8.990;2022-07-06T03:52:51;23.80;41.00
12769;DHT22;6448;48.916;8.990;2022-07-06T03:53:53;23.80;41.00
12769;DHT22;6448;48.916;8.990;2022-07-06T03:54:56;23.80;41.00
12769;DHT22;6448;48.916;8.990;2022-07-06T03:56:02;23.70;41.00
12769;DHT22;6448;48.916;8.990;2022-07-06T03:57:22;23.70;41.20
12769;DHT22;6448;48.916;8.990;2022-07-06T03:58:24;23.60;41.20
12769;DHT22;6448;48.916;8.990;2022-07-06T03:59:25;23.60;41.20
12769;DHT22;6448;48.916;8.990;2022-07-06T04:00:28;23.70;41.30
12769;DHT22;6448;48.916;8.990;2022-07-06T04:01:35;23.70;41.30
12769;DHT22;6448;48.916;8.990;2022-07-06T04:02:38;23.70;41.40
12769;DHT22;6448;48.916;8.990;2022-07-06T04:03:39;23.40;41.30
12769;DHT22;6448;48.916;8.990;2022-07-06T04:04:41;23.60;41.40
12769;DHT22;6448;48.916;8.990;2022-07-06T04:05:42;23.60;41.50
12769;DHT22;6448;48.916;8.990;2022-07-06T04:06:44;23.60;41.50
12769;DHT22;6448;48.916;8.990;2022-07-06T04:07:45;23.50;41.50
12769;DHT22;6448;48.916;8.990;2022-07-06T04:08:47;23.50;41.60
12769;DHT22;6448;48.916;8.990;2022-07-06T04:09:50;23.50;41.60
12769;DHT22;6448;48.916;8.990;2022-07-06T04:10:53;23.50;41.70
12769;DHT22;6448;48.916;8.990;2022-07-06T04:11:54;23.50;41.80
12769;DHT22;6448;48.916;8.990;2022-07-06T04:12:55;23.50;41.90
12769;DHT22;6448;48.916;8.990;2022-07-06T04:13:56;23.60;42.00
12769;DHT22;6448;48.916;8.990;2022-07-06T04:14:59;23.50;42.00
12769;DHT22;6448;48.916;8.990;2022-07-06T04:16:00;23.40;42.10
12769;DHT22;6448;48.916;8.990;2022-07-06T04:17:04;23.40;42.20
12769;DHT22;6448;48.916;8.990;2022-07-06T04:18:27;23.40;42.30
12769;DHT22;6448;48.916;8.990;2022-07-06T04:19:29;23.30;42.30
12769;DHT22;6448;48.916;8.990;2022-07-06T04:20:31;23.30;42.40
12769;DHT22;6448;48.916;8.990;2022-07-06T04:21:32;23.30;42.40
12769;DHT22;6448;48.916;8.990;2022-07-06T04:22:37;23.30;42.50
12769;DHT22;6448;48.916;8.990;2022-07-06T04:23:38;23.30;42.60
12769;DHT22;6448;48.916;8.990;2022-07-06T04:24:41;23.20;42.60
12769;DHT22;6448;48.916;8.990;2022-07-06T04:25:42;23.20;42.70
12769;DHT22;6448;48.916;8.990;2022-07-06T04:26:46;23.20;42.80
12769;DHT22;6448;48.916;8.990;2022-07-06T04:27:48;23.20;42.90
12769;DHT22;6448;48.916;8.990;2022-07-06T04:28:49;23.20;43.00
12769;DHT22;6448;48.916;8.990;2022-07-06T04:29:50;23.30;43.00
12769;DHT22;6448;48.916;8.990;2022-07-06T04:30:54;23.10;43.00
12769;DHT22;6448;48.916;8.990;2022-07-06T04:31:57;23.10;43.10
12769;DHT22;6448;48.916;8.990;2022-07-06T04:32:59;23.10;43.20
12769;DHT22;6448;48.916;8.990;2022-07-06T04:34:02;23.10;43.30
12769;DHT22;6448;48.916;8.990;2022-07-06T04:35:06;23.00;43.30
12769;DHT22;6448;48.916;8.990;2022-07-06T04:36:08;23.00;43.40
12769;DHT22;6448;48.916;8.990;2022-07-06T04:37:15;23.00;43.50
12769;DHT22;6448;48.916;8.990;2022-07-06T04:38:15;23.00;43.50
12769;DHT22;6448;48.916;8.990;2022-07-06T04:39:18;23.00;43.70
12769;DHT22;6448;48.916;8.990;2022-07-06T04:40:19;22.90;43.70
12769;DHT22;6448;48.916;8.990;2022-07-06T04:41:24;22.90;43.90
12769;DHT22;6448;48.916;8.990;2022-07-06T04:42:28;22.90;43.90
12769;DHT22;6448;48.916;8.990;2022-07-06T04:43:30;22.90;44.00
12769;DHT22;6448;48.916;8.990;2022-07-06T04:44:32;23.10;44.20
12769;DHT22;6448;48.916;8.990;2022-07-06T04:45:33;22.80;44.10
12769;DHT22;6448;48.916;8.990;2022-07-06T04:46:35;22.80;44.20
12769;DHT22;6448;48.916;8.990;2022-07-06T04:47:36;22.80;44.20
12769;DHT22;6448;48.916;8.990;2022-07-06T04:48:38;22.90;44.30
12769;DHT22;6448;48.916;8.990;2022-07-06T04:49:41;22.80;44.40
12769;DHT22;6448;48.916;8.990;2022-07-06T04:50:43;22.80;44.50
12769;DHT22;6448;48.916;8.990;2022-07-06T04:51:49;22.70;44.50
12769;DHT22;6448;48.916;8.990;2022-07-06T04:52:52;22.70;44.50
12769;DHT22;6448;48.916;8.990;2022-07-06T04:53:53;22.70;44.60
12769;DHT22;6448;48.916;8.990;2022-07-06T04:54:56;22.70;44.70
12769;DHT22;6448;48.916;8.990;2022-07-06T04:55:58;22.50;44.70
12769;DHT22;6448;48.916;8.990;2022-07-06T04:57:01;22.60;44.80
12769;DHT22;6448;48.916;8.990;2022-07-06T04:58:03;22.70;44.90
12769;DHT22;6448;48.916;8.990;2022-07-06T04:59:06;22.60;44.90
12769;DHT22;6448;48.916;8.990;2022-07-06T05:00:08;22.60;45.00
12769;DHT22;6448;48.916;8.990;2022-07-06T05:01:10;22.60;45.10
12769;DHT22;6448;48.916;8.990;2022-07-06T05:02:11;22.60;45.10
12769;DHT22;6448;48.916;8.990;2022-07-06T05:03:13;22.50;45.10
12769;DHT22;6448;48.916;8.990;2022-07-06T05:04:15;22.60;45.20
12769;DHT22;6448;48.916;8.990;2022-07-06T05:05:19;22.50;45.30
12769;DHT22;6448;48.916;8.990;2022-07-06T05:06:23;22.50;45.30
12769;DHT22;6448;48.916;8.990;2022-07-06T05:07:24;22.50;45.40
12769;DHT22;6448;48.916;8.990;2022-07-06T05:08:30;22.50;45.40
12769;DHT22;6448;48.916;8.990;2022-07-06T05:09:31;22.50;45.50
12769;DHT22;6448;48.916;8.990;2022-07-06T05:10:34;22.50;45.50
12769;DHT22;6448;48.916;8.990;2022-07-06T05:11:34;22.40;45.50
12769;DHT22;6448;48.916;8.990;2022-07-06T05:12:38;22.40;45.60
12769;DHT22;6448;48.916;8.990;2022-07-06T05:13:42;22.50;45.70
12769;DHT22;6448;48.916;8.990;2022-07-06T05:14:43;22.40;45.80
12769;DHT22;6448;48.916;8.990;2022-07-06T05:15:44;22.40;45.80
12769;DHT22;6448;48.916;8.990;2022-07-06T05:16:47;22.40;45.80
12769;DHT22;6448;48.916;8.990;2022-07-06T05:17:47;22.40;45.90
12769;DHT22;6448;48.916;8.990;2022-07-06T05:18:50;22.40;45.90
12769;DHT22;6448;48.916;8.990;2022-07-06T05:19:51;22.40;45.90
12769;DHT22;6448;48.916;8.990;2022-07-06T05:20:53;22.40;45.90
12769;DHT22;6448;48.916;8.990;2022-07-06T05:21:55;22.40;46.00
12769;DHT22;6448;48.916;8.990;2022-07-06T05:22:56;22.50;46.10
12769;DHT22;6448;48.916;8.990;2022-07-06T05:24:02;22.40;46.00
12769;DHT22;6448;48.916;8.990;2022-07-06T05:25:04;22.40;46.10
12769;DHT22;6448;48.916;8.990;2022-07-06T05:26:06;22.40;46.10
12769;DHT22;6448;48.916;8.990;2022-07-06T05:27:08;22.40;46.00
12769;DHT22;6448;48.916;8.990;2022-07-06T05:28:10;22.40;46.00
12769;DHT22;6448;48.916;8.990;2022-07-06T05:29:12;22.40;46.00
12769;DHT22;6448;48.916;8.990;2022-07-06T05:30:14;22.40;46.10
12769;DHT22;6448;48.916;8.990;2022-07-06T05:31:16;22.40;46.10
12769;DHT22;6448;48.916;8.990;2022-07-06T05:32:18;22.40;46.10
12769;DHT22;6448;48.916;8.990;2022-07-06T05:33:19;22.60;46.20
12769;DHT22;6448;48.916;8.990;2022-07-06T05:34:21;22.40;46.20
12769;DHT22;6448;48.916;8.990;2022-07-06T05:35:23;22.10;46.00
12769;DHT22;6448;48.916;8.990;2022-07-06T05:36:25;22.50;46.20
12769;DHT22;6448;48.916;8.990;2022-07-06T05:37:27;22.40;46.20
12769;DHT22;6448;48.916;8.990;2022-07-06T05:38:27;22.40;46.20
12769;DHT22;6448;48.916;8.990;2022-07-06T05:39:30;22.40;46.20
12769;DHT22;6448;48.916;8.990;2022-07-06T05:40:31;22.40;46.10
12769;DHT22;6448;48.916;8.990;2022-07-06T05:41:33;22.40;46.10
12769;DHT22;6448;48.916;8.990;2022-07-06T05:42:35;22.50;46.20
12769;DHT22;6448;48.916;8.990;2022-07-06T05:43:37;22.40;46.10
12769;DHT22;6448;48.916;8.990;2022-07-06T05:44:40;22.40;46.10
12769;DHT22;6448;48.916;8.990;2022-07-06T05:45:41;22.40;46.10
12769;DHT22;6448;48.916;8.990;2022-07-06T05:46:43;22.40;46.20
12769;DHT22;6448;48.916;8.990;2022-07-06T05:47:45;22.40;46.20
12769;DHT22;6448;48.916;8.990;2022-07-06T05:49:07;22.30;46.20
12769;DHT22;6448;48.916;8.990;2022-07-06T05:50:26;22.30;46.20
12769;DHT22;6448;48.916;8.990;2022-07-06T05:51:32;22.30;46.20
12769;DHT22;6448;48.916;8.990;2022-07-06T05:52:37;22.30;46.30
12769;DHT22;6448;48.916;8.990;2022-07-06T05:53:38;22.30;46.30
12769;DHT22;6448;48.916;8.990;2022-07-06T05:54:40;22.20;46.30
12769;DHT22;6448;48.916;8.990;2022-07-06T05:55:41;22.20;46.30
12769;DHT22;6448;48.916;8.990;2022-07-06T05:56:43;22.20;46.30
12769;DHT22;6448;48.916;8.990;2022-07-06T05:57:44;22.20;46.40
12769;DHT22;6448;48.916;8.990;2022-07-06T05:58:46;22.30;46.50
12769;DHT22;6448;48.916;8.990;2022-07-06T05:59:49;22.20;46.40
12769;DHT22;6448;48.916;8.990;2022-07-06T06:00:50;22.20;46.40
12769;DHT22;6448;48.916;8.990;2022-07-06T06:01:54;22.20;46.50
12769;DHT22;6448;48.916;8.990;2022-07-06T06:02:58;22.20;46.50
12769;DHT22;6448;48.916;8.990;2022-07-06T06:04:00;22.20;46.60
12769;DHT22;6448;48.916;8.990;2022-07-06T06:05:01;22.20;46.60
12769;DHT22;6448;48.916;8.990;2022-07-06T06:06:04;22.20;46.60
12769;DHT22;6448;48.916;8.990;2022-07-06T06:07:05;22.20;46.70
12769;DHT22;6448;48.916;8.990;2022-07-06T06:08:07;22.20;46.70
12769;DHT22;6448;48.916;8.990;2022-07-06T06:09:08;22.20;46.70
12769;DHT22;6448;48.916;8.990;2022-07-06T06:10:11;22.20;46.50
12769;DHT22;6448;48.916;8.990;2022-07-06T06:11:12;22.20;46.50
12769;DHT22;6448;48.916;8.990;2022-07-06T06:12:15;22.20;46.50
12769;DHT22;6448;48.916;8.990;2022-07-06T06:13:16;22.20;46.50
12769;DHT22;6448;48.916;8.990;2022-07-06T06:14:18;22.20;46.60
12769;DHT22;6448;48.916;8.990;2022-07-06T06:15:20;22.20;46.60
12769;DHT22;6448;48.916;8.990;2022-07-06T06:16:22;22.20;46.70
12769;DHT22;6448;48.916;8.990;2022-07-06T06:17:23;22.20;46.70
12769;DHT22;6448;48.916;8.990;2022-07-06T06:18:25;22.20;46.80
12769;DHT22;6448;48.916;8.990;2022-07-06T06:19:26;22.20;46.70
12769;DHT22;6448;48.916;8.990;2022-07-06T06:20:27;22.20;46.70
12769;DHT22;6448;48.916;8.990;2022-07-06T06:21:28;22.20;46.60
12769;DHT22;6448;48.916;8.990;2022-07-06T06:22:30;22.30;46.60
12769;DHT22;6448;48.916;8.990;2022-07-06T06:23:31;22.20;46.50
12769;DHT22;6448;48.916;8.990;2022-07-06T06:24:32;22.20;46.50
12769;DHT22;6448;48.916;8.990;2022-07-06T06:25:35;22.30;46.60
12769;DHT22;6448;48.916;8.990;2022-07-06T06:26:37;22.30;46.70
12769;DHT22;6448;48.916;8.990;2022-07-06T06:27:38;22.30;46.70
12769;DHT22;6448;48.916;8.990;2022-07-06T06:28:40;22.30;46.70
12769;DHT22;6448;48.916;8.990;2022-07-06T06:29:42;22.30;46.60
12769;DHT22;6448;48.916;8.990;2022-07-06T06:30:45;22.30;46.60
12769;DHT22;6448;48.916;8.990;2022-07-06T06:31:47;22.30;46.60
12769;DHT22;6448;48.916;8.990;2022-07-06T06:32:48;22.30;46.60
12769;DHT22;6448;48.916;8.990;2022-07-06T06:33:52;22.30;46.60
12769;DHT22;6448;48.916;8.990;2022-07-06T06:34:53;22.40;46.70
12769;DHT22;6448;48.916;8.990;2022-07-06T06:35:55;22.40;46.70
12769;DHT22;6448;48.916;8.990;2022-07-06T06:36:57;22.40;46.70
12769;DHT22;6448;48.916;8.990;2022-07-06T06:37:58;22.40;46.70
12769;DHT22;6448;48.916;8.990;2022-07-06T06:38:59;22.40;46.70